createdAt,value
2018-11-29T00:00:36.897Z,14.65
2018-11-29T00:01:49.824Z,14.80
2018-11-29T00:02:54.841Z,15.75
2018-11-29T00:03:59.208Z,16.02
2018-11-29T00:05:05.843Z,15.72
2018-11-29T00:06:10.992Z,15.95
2018-11-29T00:07:15.427Z,14.15
2018-11-29T00:08:20.663Z,12.28
2018-11-29T00:09:26.218Z,13.48
2018-11-29T00:10:30.688Z,16.80
2018-11-29T00:11:35.725Z,15.03
2018-11-29T00:12:40.809Z,14.50
2018-11-29T00:13:45.325Z,14.40
2018-11-29T00:14:51.977Z,18.37
2018-11-29T00:15:56.910Z,16.97
2018-11-29T00:17:02.214Z,18.30
2018-11-29T00:18:07.505Z,13.50
2018-11-29T00:19:13.703Z,14.07
2018-11-29T00:20:21.473Z,14.33
2018-11-29T00:21:26.940Z,14.28
2018-11-29T00:22:31.836Z,12.13
2018-11-29T00:23:37.845Z,14.87
2018-11-29T00:24:43.680Z,18.80
2018-11-29T00:25:48.686Z,15.23
2018-11-29T00:26:54.476Z,13.68
2018-11-29T00:28:03.271Z,24.70
2018-11-29T00:29:08.208Z,12.85
2018-11-29T00:30:20.472Z,16.25
2018-11-29T00:32:49.228Z,15.15
2018-11-29T00:33:55.427Z,12.63
2018-11-29T00:35:01.215Z,15.88
2018-11-29T00:36:06.134Z,15.32
2018-11-29T00:37:11.330Z,16.32
2018-11-29T00:38:16.297Z,12.80
2018-11-29T00:39:22.523Z,15.10
2018-11-29T00:40:27.567Z,17.90
2018-11-29T00:41:33.222Z,18.07
2018-11-29T00:42:38.917Z,11.45
2018-11-29T00:43:43.857Z,13.13
2018-11-29T00:44:49.619Z,15.30
2018-11-29T00:45:57.787Z,14.75
2018-11-29T00:47:03.592Z,18.80
2018-11-29T00:48:08.459Z,18.15
2018-11-29T00:49:13.644Z,14.07
2018-11-29T00:50:19.489Z,14.85
2018-11-29T00:51:26.025Z,13.48
2018-11-29T00:52:31.813Z,15.23
2018-11-29T00:53:37.468Z,15.90
2018-11-29T00:54:43.338Z,13.62
2018-11-29T00:55:51.701Z,16.25
2018-11-29T00:56:57.032Z,13.03
2018-11-29T00:58:03.449Z,13.38
2018-11-29T00:59:09.079Z,15.60
2018-11-29T01:00:16.440Z,14.90
2018-11-29T01:01:23.041Z,13.40
2018-11-29T01:02:29.210Z,18.10
2018-11-29T01:03:34.655Z,15.18
2018-11-29T01:04:41.620Z,13.85
2018-11-29T01:05:48.056Z,17.70
2018-11-29T01:06:53.143Z,13.15
2018-11-29T01:07:59.062Z,17.98
2018-11-29T01:09:04.383Z,14.30
2018-11-29T01:10:18.125Z,10.23
2018-11-29T01:11:25.115Z,10.45
2018-11-29T01:12:31.355Z,10.75
2018-11-29T01:13:37.538Z,12.73
2018-11-29T01:14:43.024Z,13.55
2018-11-29T01:15:48.690Z,13.98
2018-11-29T01:16:53.791Z,13.80
2018-11-29T01:17:59.975Z,12.58
2018-11-29T01:19:05.419Z,12.63
2018-11-29T01:20:12.302Z,10.15
2018-11-29T01:21:18.132Z,12.40
2018-11-29T01:22:23.105Z,14.75
2018-11-29T01:23:28.039Z,14.07
2018-11-29T01:24:33.062Z,14.98
2018-11-29T01:25:41.263Z,13.45
2018-11-29T01:26:46.726Z,15.32
2018-11-29T01:27:52.583Z,15.43
2018-11-29T01:28:57.638Z,16.60
2018-11-29T01:30:03.407Z,16.48
2018-11-29T01:31:08.983Z,16.75
2018-11-29T01:32:14.354Z,13.78
2018-11-29T01:33:20.316Z,14.30
2018-11-29T01:34:25.389Z,14.00
2018-11-29T01:35:32.189Z,16.90
2018-11-29T01:36:37.315Z,15.53
2018-11-29T01:37:42.596Z,13.95
2018-11-29T01:38:47.876Z,13.50
2018-11-29T01:39:52.927Z,16.73
2018-11-29T01:40:57.401Z,16.77
2018-11-29T01:42:02.053Z,14.38
2018-11-29T01:43:06.831Z,15.83
2018-11-29T01:44:12.279Z,16.93
2018-11-29T01:45:16.992Z,17.60
2018-11-29T01:46:21.645Z,16.50
2018-11-29T01:47:25.929Z,20.15
2018-11-29T01:48:32.666Z,20.35
2018-11-29T01:49:37.269Z,17.50
2018-11-29T01:50:41.491Z,15.50
2018-11-29T01:51:45.759Z,16.60
2018-11-29T01:52:50.000Z,17.27
2018-11-29T01:53:54.296Z,18.32
2018-11-29T01:54:58.660Z,17.32
2018-11-29T01:56:03.376Z,18.80
2018-11-29T01:57:07.882Z,16.65
2018-11-29T01:58:27.191Z,17.23
2018-11-29T01:59:31.509Z,18.73
2018-11-29T02:00:37.268Z,19.07
2018-11-29T02:01:41.907Z,18.90
2018-11-29T02:02:48.052Z,16.60
2018-11-29T02:03:52.656Z,17.95
2018-11-29T02:04:57.228Z,23.65
2018-11-29T02:06:01.457Z,20.72
2018-11-29T02:07:06.052Z,23.70
2018-11-29T02:08:10.524Z,20.77
2018-11-29T02:09:15.201Z,18.23
2018-11-29T02:10:24.579Z,21.42
2018-11-29T02:11:28.753Z,21.00
2018-11-29T02:12:33.242Z,20.20
2018-11-29T02:13:38.009Z,19.48
2018-11-29T02:14:42.612Z,17.02
2018-11-29T02:15:48.748Z,16.05
2018-11-29T02:16:52.949Z,19.20
2018-11-29T02:17:57.728Z,18.77
2018-11-29T02:19:02.800Z,17.20
2018-11-29T02:20:10.201Z,19.10
2018-11-29T02:21:14.875Z,16.02
2018-11-29T02:22:19.409Z,18.00
2018-11-29T02:23:24.693Z,16.23
2018-11-29T02:25:00.424Z,19.52
2018-11-29T02:26:05.324Z,21.27
2018-11-29T02:27:09.575Z,21.37
2018-11-29T02:28:13.858Z,18.62
2018-11-29T02:29:18.079Z,19.50
2018-11-29T02:30:23.819Z,21.23
2018-11-29T02:31:32.934Z,21.00
2018-11-29T02:32:37.223Z,18.23
2018-11-29T02:33:41.776Z,17.40
2018-11-29T02:34:46.381Z,20.90
2018-11-29T02:35:52.209Z,22.45
2018-11-29T02:38:52.948Z,19.90
2018-11-29T02:39:58.538Z,19.45
2018-11-29T02:41:03.153Z,19.12
2018-11-29T02:42:19.850Z,21.20
2018-11-29T02:43:24.011Z,23.67
2018-11-29T02:44:28.169Z,20.30
2018-11-29T02:45:32.355Z,19.85
2018-11-29T02:46:36.569Z,22.22
2018-11-29T02:47:40.837Z,20.70
2018-11-29T02:48:45.259Z,20.15
2018-11-29T02:50:13.168Z,24.02
2018-11-29T02:51:17.441Z,19.25
2018-11-29T02:52:24.201Z,20.23
2018-11-29T02:53:29.640Z,22.98
2018-11-29T02:54:33.843Z,19.60
2018-11-29T02:55:38.474Z,20.15
2018-11-29T02:56:42.733Z,21.87
2018-11-29T02:57:46.928Z,21.60
2018-11-29T02:58:51.715Z,21.23
2018-11-29T02:59:56.067Z,21.02
2018-11-29T03:01:00.414Z,18.15
2018-11-29T03:02:04.832Z,21.27
2018-11-29T03:03:08.993Z,21.90
2018-11-29T03:04:13.193Z,24.20
2018-11-29T03:05:17.812Z,19.50
2018-11-29T03:06:21.934Z,27.05
2018-11-29T03:07:26.172Z,21.80
2018-11-29T03:08:30.318Z,21.82
2018-11-29T03:09:34.485Z,22.40
2018-11-29T03:10:38.755Z,25.08
2018-11-29T03:11:42.930Z,21.90
2018-11-29T03:12:49.959Z,25.08
2018-11-29T03:13:54.754Z,23.30
2018-11-29T03:14:59.449Z,24.75
2018-11-29T03:16:04.987Z,19.98
2018-11-29T03:17:09.125Z,23.62
2018-11-29T03:18:13.416Z,25.90
2018-11-29T03:19:17.568Z,24.30
2018-11-29T03:20:22.109Z,23.18
2018-11-29T03:21:26.515Z,24.87
2018-11-29T03:22:31.295Z,22.48
2018-11-29T03:23:35.877Z,29.80
2018-11-29T03:24:40.152Z,25.00
2018-11-29T03:25:44.253Z,23.80
2018-11-29T03:26:48.416Z,20.77
2018-11-29T03:27:53.117Z,22.37
2018-11-29T03:28:58.415Z,22.13
2018-11-29T03:30:02.624Z,22.90
2018-11-29T03:31:07.103Z,25.15
2018-11-29T03:32:11.418Z,24.10
2018-11-29T03:33:15.745Z,24.30
2018-11-29T03:34:19.900Z,24.95
2018-11-29T03:35:24.414Z,26.27
2018-11-29T03:36:31.197Z,28.32
2018-11-29T03:37:35.373Z,30.12
2018-11-29T03:38:39.741Z,27.98
2018-11-29T03:39:43.836Z,28.15
2018-11-29T03:40:48.047Z,31.30
2018-11-29T03:41:53.407Z,27.13
2018-11-29T03:42:57.485Z,31.07
2018-11-29T03:44:02.668Z,30.60
2018-11-29T03:45:08.437Z,29.57
2018-11-29T03:46:12.724Z,32.53
2018-11-29T03:47:17.552Z,27.70
2018-11-29T03:48:21.803Z,29.80
2018-11-29T03:49:27.376Z,27.02
2018-11-29T03:50:31.757Z,26.00
2018-11-29T03:51:35.862Z,26.02
2018-11-29T03:52:40.024Z,30.82
2018-11-29T03:53:44.269Z,31.33
2018-11-29T03:54:48.404Z,28.25
2018-11-29T03:55:53.443Z,29.95
2018-11-29T03:56:58.005Z,23.98
2018-11-29T03:58:02.144Z,25.27
2018-11-29T03:59:06.736Z,24.05
2018-11-29T04:00:15.161Z,26.55
2018-11-29T04:01:19.837Z,22.80
2018-11-29T04:02:25.595Z,27.37
2018-11-29T04:03:30.761Z,24.45
2018-11-29T04:04:34.892Z,29.80
2018-11-29T04:05:40.444Z,21.50
2018-11-29T04:06:44.590Z,24.05
2018-11-29T04:07:48.716Z,26.07
2018-11-29T04:08:53.055Z,27.35
2018-11-29T04:09:57.599Z,24.65
2018-11-29T04:11:01.708Z,25.30
2018-11-29T04:12:05.848Z,25.92
2018-11-29T04:13:10.284Z,27.27
2018-11-29T04:14:14.411Z,25.57
2018-11-29T04:15:18.597Z,22.52
2018-11-29T04:16:22.803Z,27.40
2018-11-29T04:17:27.055Z,24.70
2018-11-29T04:18:31.333Z,29.18
2018-11-29T04:19:35.847Z,24.07
2018-11-29T04:20:41.334Z,24.90
2018-11-29T04:21:45.527Z,27.32
2018-11-29T04:22:49.735Z,30.40
2018-11-29T04:23:54.036Z,26.17
2018-11-29T04:24:58.751Z,24.43
2018-11-29T04:26:03.159Z,31.35
2018-11-29T04:27:07.570Z,31.02
2018-11-29T04:28:11.800Z,26.42
2018-11-29T04:29:16.184Z,25.80
2018-11-29T04:30:20.374Z,29.00
2018-11-29T04:31:24.600Z,26.15
2018-11-29T04:32:30.172Z,27.50
2018-11-29T04:33:35.153Z,26.70
2018-11-29T04:34:39.347Z,32.78
2018-11-29T04:35:43.952Z,30.08
2018-11-29T04:36:48.392Z,27.17
2018-11-29T04:37:52.652Z,29.67
2018-11-29T04:38:56.840Z,27.55
2018-11-29T04:40:01.053Z,27.87
2018-11-29T04:41:05.650Z,30.10
2018-11-29T04:42:09.857Z,29.12
2018-11-29T04:43:15.005Z,24.87
2018-11-29T04:44:19.333Z,25.80
2018-11-29T04:45:23.713Z,28.47
2018-11-29T04:46:39.250Z,27.73
2018-11-29T04:47:43.940Z,27.85
2018-11-29T04:48:48.253Z,25.02
2018-11-29T04:49:52.416Z,24.90
2018-11-29T04:50:56.590Z,28.42
2018-11-29T04:52:00.976Z,27.32
2018-11-29T04:53:05.569Z,27.80
2018-11-29T04:54:11.216Z,29.02
2018-11-29T04:55:15.430Z,27.50
2018-11-29T04:56:19.617Z,27.50
2018-11-29T04:57:24.992Z,25.70
2018-11-29T04:58:31.427Z,25.20
2018-11-29T04:59:36.428Z,26.73
2018-11-29T05:00:40.936Z,29.12
2018-11-29T05:01:45.698Z,31.60
2018-11-29T05:02:49.943Z,24.70
2018-11-29T05:03:54.438Z,28.45
2018-11-29T05:04:59.452Z,31.20
2018-11-29T05:06:03.902Z,27.50
2018-11-29T05:07:09.425Z,30.77
2018-11-29T05:08:14.036Z,27.00
2018-11-29T05:09:19.265Z,29.42
2018-11-29T05:10:24.411Z,26.25
2018-11-29T05:11:32.531Z,28.87
2018-11-29T05:12:36.847Z,32.90
2018-11-29T05:13:41.226Z,31.37
2018-11-29T05:14:48.454Z,30.90
2018-11-29T05:15:52.906Z,33.08
2018-11-29T05:16:58.024Z,33.55
2018-11-29T05:18:02.911Z,30.35
2018-11-29T05:19:07.238Z,36.75
2018-11-29T05:20:12.268Z,35.85
2018-11-29T05:21:16.616Z,31.40
2018-11-29T05:22:21.013Z,31.77
2018-11-29T05:23:25.578Z,35.03
2018-11-29T05:24:30.571Z,27.42
2018-11-29T05:25:36.196Z,35.55
2018-11-29T05:26:41.024Z,29.87
2018-11-29T05:27:45.965Z,28.10
2018-11-29T05:28:50.524Z,30.23
2018-11-29T05:29:55.538Z,34.95
2018-11-29T05:31:00.282Z,33.55
2018-11-29T05:32:04.825Z,35.13
2018-11-29T05:33:09.476Z,30.75
2018-11-29T05:34:13.939Z,30.35
2018-11-29T05:35:18.745Z,31.68
2018-11-29T05:36:23.412Z,31.52
2018-11-29T05:37:28.381Z,29.23
2018-11-29T05:38:32.703Z,32.88
2018-11-29T05:39:37.381Z,33.78
2018-11-29T05:40:41.584Z,31.40
2018-11-29T05:41:46.198Z,30.85
2018-11-29T05:42:50.451Z,31.52
2018-11-29T05:43:54.618Z,29.32
2018-11-29T05:44:58.749Z,30.75
2018-11-29T05:46:02.947Z,35.05
2018-11-29T05:47:07.677Z,30.48
2018-11-29T05:48:12.652Z,31.93
2018-11-29T05:49:17.349Z,33.00
2018-11-29T05:50:21.755Z,33.25
2018-11-29T05:51:26.410Z,33.60
2018-11-29T05:52:31.361Z,31.05
2018-11-29T05:53:35.523Z,29.87
2018-11-29T05:54:40.070Z,30.27
2018-11-29T05:55:44.362Z,31.68
2018-11-29T05:56:48.584Z,31.02
2018-11-29T05:57:53.300Z,30.55
2018-11-29T05:58:58.207Z,32.80
2018-11-29T06:00:02.614Z,32.38
2018-11-29T06:01:13.332Z,35.95
2018-11-29T06:02:18.404Z,33.73
2018-11-29T06:03:22.761Z,37.15
2018-11-29T06:04:26.907Z,32.88
2018-11-29T06:06:27.143Z,32.13
2018-11-29T06:07:31.571Z,28.90
2018-11-29T06:08:36.364Z,31.27
2018-11-29T06:09:41.928Z,31.57
2018-11-29T06:10:46.949Z,31.17
2018-11-29T06:11:52.090Z,30.72
2018-11-29T06:12:56.322Z,27.25
2018-11-29T06:14:01.307Z,26.33
2018-11-29T06:15:06.746Z,27.35
2018-11-29T06:16:11.023Z,28.70
2018-11-29T06:17:15.326Z,29.42
2018-11-29T06:18:19.962Z,31.65
2018-11-29T06:19:25.623Z,29.87
2018-11-29T06:20:30.292Z,30.02
2018-11-29T06:21:34.705Z,30.88
2018-11-29T06:22:39.253Z,28.47
2018-11-29T06:23:43.559Z,31.37
2018-11-29T06:24:48.261Z,34.03
2018-11-29T06:25:52.930Z,26.12
2018-11-29T06:26:57.202Z,29.30
2018-11-29T06:28:02.518Z,29.00
2018-11-29T06:29:34.414Z,36.03
2018-11-29T06:30:40.613Z,29.63
2018-11-29T06:31:47.244Z,31.42
2018-11-29T06:32:52.523Z,30.35
2018-11-29T06:34:00.325Z,32.88
2018-11-29T06:35:07.810Z,31.87
2018-11-29T06:36:13.382Z,33.58
2018-11-29T06:37:17.863Z,30.72
2018-11-29T06:38:23.374Z,28.80
2018-11-29T06:39:28.384Z,31.95
2018-11-29T06:40:33.894Z,29.90
2018-11-29T06:41:38.712Z,28.30
2018-11-29T06:42:43.072Z,32.15
2018-11-29T06:43:47.714Z,26.77
2018-11-29T06:44:52.925Z,27.75
2018-11-29T06:45:57.306Z,26.37
2018-11-29T06:47:01.793Z,29.85
2018-11-29T06:48:19.303Z,28.75
2018-11-29T06:49:24.432Z,27.00
2018-11-29T06:50:30.302Z,26.35
2018-11-29T06:51:35.329Z,35.80
2018-11-29T06:54:10.341Z,32.83
2018-11-29T06:55:30.658Z,26.05
2018-11-29T06:56:39.283Z,28.02
2018-11-29T06:57:45.872Z,32.70
2018-11-29T07:01:57.669Z,28.45
2018-11-29T07:03:28.735Z,26.30
2018-11-29T07:04:31.424Z,26.42
2018-11-29T07:05:44.384Z,26.15
2018-11-29T07:06:48.857Z,32.15
2018-11-29T07:07:56.024Z,30.08
2018-11-29T07:09:08.853Z,28.67
2018-11-29T07:10:27.123Z,28.73
2018-11-29T07:11:34.037Z,24.63
2018-11-29T07:12:40.880Z,24.98
2018-11-29T07:13:45.400Z,31.33
2018-11-29T07:14:51.839Z,29.05
2018-11-29T07:15:56.058Z,32.38
2018-11-29T07:17:00.418Z,27.75
2018-11-29T07:18:08.047Z,26.85
2018-11-29T07:19:14.975Z,26.62
2018-11-29T07:20:20.772Z,30.65
2018-11-29T07:22:00.660Z,29.12
2018-11-29T07:24:53.479Z,26.23
2018-11-29T07:26:12.532Z,27.45
2018-11-29T07:27:26.186Z,28.30
2018-11-29T07:29:00.452Z,30.65
2018-11-29T07:30:05.543Z,29.30
2018-11-29T07:31:11.324Z,29.23
2018-11-29T07:32:19.345Z,29.98
2018-11-29T07:33:24.173Z,30.25
2018-11-29T07:34:31.221Z,34.75
2018-11-29T07:35:37.409Z,31.30
2018-11-29T07:36:43.274Z,35.50
2018-11-29T07:37:49.425Z,34.53
2018-11-29T07:38:58.432Z,30.08
2018-11-29T07:40:05.184Z,37.63
2018-11-29T07:41:18.511Z,44.63
2018-11-29T07:42:36.109Z,36.45
2018-11-29T07:43:42.261Z,29.35
2018-11-29T07:44:54.255Z,32.60
2018-11-29T07:46:03.083Z,32.88
2018-11-29T07:47:24.542Z,33.13
2018-11-29T07:48:34.844Z,36.63
2018-11-29T07:49:43.939Z,36.13
2018-11-29T07:50:49.581Z,29.60
2018-11-29T07:51:55.192Z,32.38
2018-11-29T07:53:05.206Z,30.20
2018-11-29T07:54:10.487Z,31.85
2018-11-29T07:55:21.434Z,29.37
2018-11-29T07:56:29.458Z,32.75
2018-11-29T07:57:36.024Z,33.90
2018-11-29T07:58:40.273Z,34.60
2018-11-29T07:59:44.425Z,34.60
2018-11-29T08:00:48.850Z,35.58
2018-11-29T08:01:53.781Z,32.83
2018-11-29T08:02:58.901Z,32.08
2018-11-29T08:04:05.207Z,35.30
2018-11-29T08:05:11.241Z,34.75
2018-11-29T08:06:15.712Z,31.23
2018-11-29T08:07:21.356Z,31.57
2018-11-29T08:08:30.853Z,35.52
2018-11-29T08:09:37.589Z,32.70
2018-11-29T08:10:41.954Z,27.90
2018-11-29T08:11:46.353Z,32.60
2018-11-29T08:12:51.572Z,33.25
2018-11-29T08:13:57.129Z,31.17
2018-11-29T08:15:01.303Z,36.48
2018-11-29T08:16:09.716Z,33.45
2018-11-29T08:17:18.651Z,34.38
2018-11-29T08:18:22.934Z,32.73
2018-11-29T08:19:30.327Z,35.28
2018-11-29T08:20:38.651Z,31.23
2018-11-29T08:21:43.258Z,33.53
2018-11-29T08:22:47.867Z,33.63
2018-11-29T08:23:52.881Z,35.35
2018-11-29T08:24:59.996Z,29.40
2018-11-29T08:26:04.795Z,33.50
2018-11-29T08:27:10.349Z,37.67
2018-11-29T08:28:16.436Z,31.87
2018-11-29T08:29:21.244Z,41.02
2018-11-29T08:30:25.481Z,35.05
2018-11-29T08:31:30.292Z,34.45
2018-11-29T08:32:34.519Z,28.27
2018-11-29T08:34:05.543Z,32.15
2018-11-29T08:35:18.949Z,36.13
2018-11-29T08:36:27.719Z,41.20
2018-11-29T08:37:34.284Z,30.92
2018-11-29T08:39:55.783Z,33.60
2018-11-29T08:41:01.685Z,36.65
2018-11-29T08:42:15.871Z,32.28
2018-11-29T08:44:38.350Z,36.15
2018-11-29T08:45:49.199Z,28.50
2018-11-29T08:46:54.682Z,35.83
2018-11-29T08:47:59.412Z,36.98
2018-11-29T08:49:04.294Z,32.55
2018-11-29T08:50:20.014Z,35.95
2018-11-29T08:51:24.714Z,33.05
2018-11-29T08:52:29.481Z,38.17
2018-11-29T08:53:34.087Z,34.48
2018-11-29T08:54:38.474Z,34.23
2018-11-29T08:55:42.808Z,31.60
2018-11-29T08:56:47.161Z,31.17
2018-11-29T08:57:54.733Z,31.55
2018-11-29T08:58:59.547Z,37.20
2018-11-29T09:00:05.628Z,32.30
2018-11-29T09:01:11.639Z,30.72
2018-11-29T09:02:18.491Z,32.78
2018-11-29T09:03:24.847Z,31.00
2018-11-29T09:04:34.784Z,34.65
2018-11-29T09:05:42.419Z,34.63
2018-11-29T09:06:47.371Z,40.55
2018-11-29T09:07:53.538Z,31.97
2018-11-29T09:08:57.813Z,38.92
2018-11-29T09:10:02.998Z,33.25
2018-11-29T09:11:15.178Z,34.38
2018-11-29T09:12:28.689Z,35.05
2018-11-29T09:13:34.741Z,30.88
2018-11-29T09:14:40.196Z,35.40
2018-11-29T09:15:45.467Z,37.55
2018-11-29T09:16:49.736Z,33.90
2018-11-29T09:17:54.762Z,36.15
2018-11-29T09:18:59.059Z,36.03
2018-11-29T09:20:03.527Z,35.83
2018-11-29T09:21:13.221Z,33.10
2018-11-29T09:22:19.492Z,35.68
2018-11-29T09:23:24.585Z,35.95
2018-11-29T09:24:29.837Z,36.23
2018-11-29T09:25:34.228Z,35.65
2018-11-29T09:26:41.750Z,43.30
2018-11-29T09:27:47.016Z,36.35
2018-11-29T09:28:51.937Z,31.60
2018-11-29T09:29:56.189Z,36.25
2018-11-29T09:31:01.409Z,40.63
2018-11-29T09:32:08.775Z,37.48
2018-11-29T09:33:14.405Z,34.10
2018-11-29T09:34:19.370Z,38.85
2018-11-29T09:35:24.288Z,34.60
2018-11-29T09:36:29.767Z,33.08
2018-11-29T09:37:35.207Z,36.70
2018-11-29T09:38:41.895Z,33.33
2018-11-29T09:39:46.378Z,33.55
2018-11-29T09:40:51.421Z,39.85
2018-11-29T09:42:03.040Z,37.88
2018-11-29T09:43:12.905Z,36.88
2018-11-29T09:44:21.989Z,37.93
2018-11-29T09:45:32.104Z,31.50
2018-11-29T09:46:42.528Z,37.03
2018-11-29T09:47:54.784Z,39.35
2018-11-29T09:48:59.980Z,32.65
2018-11-29T09:50:07.428Z,31.12
2018-11-29T09:51:13.426Z,43.35
2018-11-29T09:52:20.810Z,36.65
2018-11-29T09:53:25.198Z,39.35
2018-11-29T09:54:31.493Z,32.17
2018-11-29T09:55:36.852Z,38.73
2018-11-29T09:56:42.641Z,39.50
2018-11-29T09:57:48.276Z,38.15
2018-11-29T09:58:54.269Z,36.15
2018-11-29T10:00:01.247Z,45.25
2018-11-29T10:01:06.258Z,39.33
2018-11-29T10:02:10.623Z,39.27
2018-11-29T10:03:16.260Z,42.08
2018-11-29T10:04:21.652Z,39.85
2018-11-29T10:05:27.556Z,36.42
2018-11-29T10:06:31.921Z,40.52
2018-11-29T10:07:37.258Z,40.50
2018-11-29T10:09:01.581Z,38.75
2018-11-29T10:10:11.431Z,36.40
2018-11-29T10:11:16.935Z,38.80
2018-11-29T10:12:21.880Z,38.05
2018-11-29T10:13:26.719Z,37.83
2018-11-29T10:14:31.265Z,37.95
2018-11-29T10:15:35.774Z,38.17
2018-11-29T10:16:41.352Z,39.15
2018-11-29T10:17:45.664Z,46.10
2018-11-29T10:18:51.819Z,36.30
2018-11-29T10:19:56.681Z,37.40
2018-11-29T10:21:00.909Z,36.08
2018-11-29T10:22:06.480Z,37.15
2018-11-29T10:23:11.235Z,41.18
2018-11-29T10:24:15.566Z,38.00
2018-11-29T10:25:21.701Z,34.65
2018-11-29T10:26:28.176Z,36.58
2018-11-29T10:27:34.802Z,38.08
2018-11-29T10:28:43.760Z,42.10
2018-11-29T10:30:04.080Z,37.67
2018-11-29T10:31:09.406Z,39.83
2018-11-29T10:32:17.137Z,41.48
2018-11-29T10:33:23.138Z,42.58
2018-11-29T10:34:28.211Z,37.95
2018-11-29T10:35:33.364Z,39.15
2018-11-29T10:36:39.672Z,31.90
2018-11-29T10:37:45.661Z,39.67
2018-11-29T10:38:50.165Z,36.05
2018-11-29T10:39:54.473Z,36.33
2018-11-29T10:41:02.006Z,43.17
2018-11-29T10:42:11.608Z,38.63
2018-11-29T10:43:17.104Z,35.95
2018-11-29T10:44:21.945Z,37.65
2018-11-29T10:45:26.844Z,40.98
2018-11-29T10:46:31.541Z,42.60
2018-11-29T10:47:36.493Z,33.00
2018-11-29T10:48:40.889Z,43.75
2018-11-29T10:49:47.626Z,38.75
2018-11-29T10:50:52.033Z,47.05
2018-11-29T10:51:56.556Z,40.85
2018-11-29T10:53:01.523Z,38.50
2018-11-29T10:54:06.060Z,39.45
2018-11-29T10:55:12.079Z,35.40
2018-11-29T10:56:16.485Z,33.23
2018-11-29T10:57:21.917Z,30.77
2018-11-29T10:58:26.374Z,29.48
2018-11-29T10:59:35.244Z,30.10
2018-11-29T11:00:45.600Z,34.78
2018-11-29T11:01:58.616Z,36.15
2018-11-29T11:03:39.269Z,43.30
2018-11-29T11:04:45.857Z,35.80
2018-11-29T11:05:53.886Z,37.17
2018-11-29T11:06:58.613Z,41.60
2018-11-29T11:08:08.217Z,48.85
2018-11-29T11:09:19.573Z,53.70
2018-11-29T11:10:25.587Z,49.90
2018-11-29T11:11:39.043Z,93.70
2018-11-29T11:12:43.776Z,83.90
2018-11-29T11:13:48.435Z,63.78
2018-11-29T11:14:57.614Z,38.80
2018-11-29T11:16:02.375Z,57.17
2018-11-29T11:17:07.333Z,44.53
2018-11-29T11:18:12.649Z,58.80
2018-11-29T11:19:17.077Z,38.02
2018-11-29T11:20:21.740Z,39.40
2018-11-29T11:21:27.489Z,39.45
2018-11-29T11:22:33.127Z,53.45
2018-11-29T11:23:37.837Z,44.42
2018-11-29T11:24:42.481Z,50.65
2018-11-29T11:25:48.124Z,49.38
2018-11-29T11:26:52.767Z,43.83
2018-11-29T11:27:57.135Z,51.53
2018-11-29T11:29:02.409Z,43.68
2018-11-29T11:30:12.462Z,48.17
2018-11-29T11:31:18.277Z,39.65
2018-11-29T11:32:24.450Z,49.27
2018-11-29T11:33:36.551Z,48.92
2018-11-29T11:34:42.353Z,39.23
2018-11-29T11:35:48.770Z,40.28
2018-11-29T11:36:54.078Z,41.10
2018-11-29T11:38:00.860Z,41.13
2018-11-29T11:39:08.244Z,41.70
2018-11-29T11:40:14.340Z,37.70
2018-11-29T11:41:18.703Z,36.40
2018-11-29T11:42:27.386Z,35.17
2018-11-29T11:43:32.829Z,40.25
2018-11-29T11:44:39.741Z,40.60
2018-11-29T11:45:45.154Z,41.92
2018-11-29T11:46:51.205Z,43.02
2018-11-29T11:48:03.199Z,44.73
2018-11-29T11:49:04.998Z,43.78
2018-11-29T11:50:17.808Z,41.80
2018-11-29T11:51:22.692Z,39.88
2018-11-29T11:52:30.907Z,46.28
2018-11-29T11:53:36.868Z,58.92
2018-11-29T11:54:42.283Z,45.23
2018-11-29T11:55:53.301Z,47.00
2018-11-29T11:56:56.274Z,45.90
2018-11-29T11:58:00.859Z,46.75
2018-11-29T11:59:05.707Z,40.17
2018-11-29T12:00:14.907Z,41.48
2018-11-29T12:01:22.930Z,41.30
2018-11-29T12:02:29.918Z,38.90
2018-11-29T12:03:35.159Z,41.85
2018-11-29T12:04:42.334Z,36.30
2018-11-29T12:05:47.855Z,42.33
2018-11-29T12:06:52.145Z,39.13
2018-11-29T12:07:58.288Z,45.90
2018-11-29T12:09:03.263Z,36.10
2018-11-29T12:10:14.557Z,38.80
2018-11-29T12:11:20.184Z,40.30
2018-11-29T12:12:25.217Z,32.40
2018-11-29T12:13:29.564Z,31.80
2018-11-29T12:14:35.899Z,36.00
2018-11-29T12:15:40.467Z,35.55
2018-11-29T12:16:44.779Z,34.50
2018-11-29T12:17:51.421Z,35.35
2018-11-29T12:19:02.055Z,37.05
2018-11-29T12:20:00.551Z,38.10
2018-11-29T12:21:11.841Z,37.73
2018-11-29T12:22:17.198Z,31.55
2018-11-29T12:23:25.883Z,31.57
2018-11-29T12:24:30.785Z,32.28
2018-11-29T12:25:35.334Z,35.70
2018-11-29T12:26:40.650Z,37.88
2018-11-29T12:27:45.570Z,33.63
2018-11-29T12:28:49.817Z,34.20
2018-11-29T12:29:54.268Z,39.00
2018-11-29T12:30:59.127Z,34.27
2018-11-29T12:32:03.789Z,32.85
2018-11-29T12:33:09.075Z,32.78
2018-11-29T12:34:13.614Z,30.77
2018-11-29T12:35:20.262Z,41.53
2018-11-29T12:36:25.165Z,31.10
2018-11-29T12:37:29.472Z,38.70
2018-11-29T12:38:34.752Z,36.55
2018-11-29T12:39:40.305Z,29.85
2018-11-29T12:40:46.463Z,30.20
2018-11-29T12:41:52.056Z,33.02
2018-11-29T12:42:58.152Z,38.65
2018-11-29T12:45:30.388Z,32.13
2018-11-29T12:46:35.305Z,33.88
2018-11-29T12:47:40.780Z,35.52
2018-11-29T12:48:49.725Z,33.80
2018-11-29T12:49:55.412Z,31.60
2018-11-29T12:51:00.630Z,35.88
2018-11-29T12:52:06.781Z,36.17
2018-11-29T12:53:11.371Z,33.02
2018-11-29T12:54:15.851Z,32.20
2018-11-29T12:55:26.254Z,33.00
2018-11-29T12:56:30.945Z,38.25
2018-11-29T12:57:36.457Z,36.60
2018-11-29T12:58:41.146Z,37.93
2018-11-29T12:59:45.734Z,31.65
2018-11-29T13:00:51.245Z,31.77
2018-11-29T13:01:58.594Z,31.00
2018-11-29T13:04:09.382Z,38.78
2018-11-29T13:07:32.134Z,38.58
2018-11-29T13:08:50.785Z,35.28
2018-11-29T13:09:58.434Z,36.13
2018-11-29T13:11:16.713Z,44.00
2018-11-29T13:12:24.451Z,43.55
2018-11-29T13:13:29.074Z,35.52
2018-11-29T13:14:37.783Z,31.93
2018-11-29T13:15:47.820Z,38.98
2018-11-29T13:16:57.106Z,36.75
2018-11-29T13:18:04.020Z,33.20
2018-11-29T13:19:14.253Z,37.23
2018-11-29T13:20:32.858Z,29.57
2018-11-29T13:22:07.590Z,30.62
2018-11-29T13:23:12.205Z,36.58
2018-11-29T13:24:18.460Z,34.90
2018-11-29T13:25:24.810Z,37.45
2018-11-29T13:26:30.405Z,38.78
2018-11-29T13:27:35.793Z,42.03
2018-11-29T13:28:42.726Z,35.25
2018-11-29T13:29:48.642Z,39.25
2018-11-29T13:31:05.852Z,37.48
2018-11-29T13:32:12.061Z,35.43
2018-11-29T13:33:18.795Z,37.70
2018-11-29T13:34:23.697Z,35.33
2018-11-29T13:35:31.258Z,38.45
2018-11-29T13:36:36.760Z,42.90
2018-11-29T13:37:43.148Z,40.17
2018-11-29T13:38:47.740Z,39.88
2018-11-29T13:39:54.613Z,42.90
2018-11-29T13:40:59.717Z,39.13
2018-11-29T13:42:10.852Z,39.33
2018-11-29T13:43:17.745Z,38.60
2018-11-29T13:44:24.075Z,31.70
2018-11-29T13:45:29.766Z,41.13
2018-11-29T13:46:35.396Z,32.83
2018-11-29T13:47:40.319Z,39.08
2018-11-29T13:48:45.269Z,32.88
2018-11-29T13:49:51.438Z,39.18
2018-11-29T13:50:56.864Z,35.35
2018-11-29T13:52:02.694Z,40.38
2018-11-29T13:53:15.227Z,37.17
2018-11-29T13:54:20.218Z,36.03
2018-11-29T13:55:25.443Z,37.80
2018-11-29T13:56:29.978Z,37.50
2018-11-29T13:57:35.417Z,37.50
2018-11-29T13:58:40.711Z,44.93
2018-11-29T13:59:46.285Z,39.67
2018-11-29T14:00:51.172Z,37.65
2018-11-29T14:01:55.840Z,38.13
2018-11-29T14:03:04.413Z,34.20
2018-11-29T14:04:11.778Z,30.55
2018-11-29T14:05:17.985Z,32.13
2018-11-29T14:06:22.935Z,33.58
2018-11-29T14:07:28.272Z,34.15
2018-11-29T14:08:32.863Z,36.48
2018-11-29T14:09:48.742Z,31.02
2018-11-29T14:10:53.390Z,34.98
2018-11-29T14:12:11.059Z,33.90
2018-11-29T14:13:35.556Z,31.60
2018-11-29T14:14:48.867Z,35.48
2018-11-29T14:15:54.019Z,32.50
2018-11-29T14:17:19.439Z,27.02
2018-11-29T14:18:35.751Z,32.93
2018-11-29T14:19:51.638Z,32.17
2018-11-29T14:21:10.430Z,30.85
2018-11-29T14:22:24.822Z,38.45
2018-11-29T14:23:33.835Z,42.38
2018-11-29T14:24:49.508Z,43.25
2018-11-29T14:26:00.696Z,31.62
2018-11-29T14:27:05.289Z,34.50
2018-11-29T14:28:09.885Z,33.20
2018-11-29T14:29:45.757Z,35.38
2018-11-29T14:31:10.219Z,33.73
2018-11-29T14:32:28.299Z,32.23
2018-11-29T14:33:38.823Z,31.12
2018-11-29T14:34:45.398Z,34.67